Time;durP1;ratioP1;P1;durP2;ratioP2;P2;SDS_P1;SDS_P2;PMS_P1;PMS_P2;Temp;Humidity;BMP_temperature;BMP_pressure;BME280_temperature;BME280_humidity;BME280_pressure;Samples;Min_cycle;Max_cycle;Signal;HPM_P1;HPM_P2
2023/05/11 00:01:26;;;;;;;;;;;11.50;71.30;;;-151.14;100.00;62537.16;5034079;28;19921;-81
2023/05/11 00:03:54;;;;;;;;;;;11.50;71.40;;;-151.14;100.00;62537.16;5032894;28;19921;-80
2023/05/11 00:06:22;;;;;;;;;;;11.50;71.20;;;-151.14;100.00;62537.16;5016491;28;19927;-81
2023/05/11 00:08:50;;;;;;;;;;;11.50;71.10;;;-151.14;100.00;62537.16;5015828;28;19943;-81
2023/05/11 00:11:18;;;;;;;;;;;11.50;71.00;;;-151.14;100.00;62537.16;5032922;28;19928;-80
2023/05/11 00:13:48;;;;;;;;;;;11.50;71.10;;;-151.14;100.00;62537.16;5016213;28;20132;-81
2023/05/11 00:16:16;;;;;;;;;;;11.50;71.10;;;-151.14;100.00;62537.16;5016264;28;19944;-81
2023/05/11 00:18:44;;;;;;;;;;;11.50;70.80;;;-151.14;100.00;62537.16;5015504;28;19921;-81
2023/05/11 00:21:12;;;;;;;;;;;11.50;70.80;;;-151.14;100.00;62537.16;5032925;28;19921;-81
2023/05/11 00:23:40;;;;;;;;;;;11.40;70.90;;;-151.14;100.00;62537.16;5032676;28;19928;-81
2023/05/11 00:26:08;;;;;;;;;;;11.40;70.60;;;-151.14;100.00;62537.16;5016293;28;20239;-81
2023/05/11 00:28:36;;;;;;;;;;;11.40;70.50;;;-151.14;100.00;62537.16;5031851;28;19921;-81
2023/05/11 00:31:05;;;;;;;;;;;11.40;70.50;;;-151.14;100.00;62537.16;5016121;28;19925;-81
2023/05/11 00:33:33;;;;;;;;;;;11.40;70.40;;;-151.14;100.00;62537.16;5016001;28;19921;-81
2023/05/11 00:36:03;;;;;;;;;;;11.40;70.60;;;-151.14;100.00;62537.16;5015988;28;20113;-81
2023/05/11 00:38:31;;;;;;;;;;;11.40;70.60;;;-151.14;100.00;62537.16;5031588;28;19927;-81
2023/05/11 00:40:59;;;;;;;;;;;11.40;70.40;;;-151.14;100.00;62537.16;5016009;28;19921;-81
2023/05/11 00:43:27;;;;;;;;;;;11.40;70.40;;;-151.14;100.00;62537.16;5032331;28;19921;-81
2023/05/11 00:45:55;;;;;;;;;;;11.40;70.20;;;-151.14;100.00;62537.16;5032439;28;19922;-81
2023/05/11 00:48:24;;;;;;;;;;;11.30;70.10;;;-151.14;100.00;62537.16;5015215;28;19921;-80
2023/05/11 00:50:52;;;;;;;;;;;11.30;70.10;;;-151.14;100.00;62537.16;5032392;28;20210;-81
2023/05/11 00:53:20;;;;;;;;;;;11.30;70.00;;;-151.14;100.00;62537.16;5032038;28;20209;-81
2023/05/11 00:55:48;;;;;;;;;;;11.30;70.00;;;-151.14;100.00;62537.16;5032098;28;20231;-81
2023/05/11 00:58:16;;;;;;;;;;;11.30;70.00;;;-151.14;100.00;62537.16;5031634;28;20209;-81
2023/05/11 01:00:46;;;;;;;;;;;11.30;70.00;;;-151.14;100.00;62537.16;5016117;28;19921;-81
2023/05/11 01:03:15;;;;;;;;;;;11.30;70.10;;;-151.14;100.00;62537.16;5032039;28;19928;-81
2023/05/11 01:05:49;;;;;;;;;;;11.30;69.90;;;-151.14;100.00;62537.16;5031949;28;19928;-81
2023/05/11 01:08:18;;;;;;;;;;;11.30;69.90;;;-151.14;100.00;62537.16;5014992;28;20228;-80
2023/05/11 01:10:48;;;;;;;;;;;11.30;70.00;;;-151.14;100.00;62537.16;5031947;28;19927;-81
2023/05/11 01:13:19;;;;;;;;;;;11.20;70.00;;;-151.14;100.00;62537.16;5015510;28;19921;-81
2023/05/11 01:15:50;;;;;;;;;;;11.20;69.70;;;-151.14;100.00;62537.16;5031703;28;19921;-80
2023/05/11 01:18:25;;;;;;;;;;;11.30;69.80;;;-151.14;100.00;62537.16;5014812;28;19925;-80
2023/05/11 01:20:57;;;;;;;;;;;11.20;69.70;;;-151.14;100.00;62537.16;5015316;28;19921;-81
2023/05/11 01:23:41;;;;;;;;;;;11.20;69.60;;;-151.14;100.00;62537.16;5031826;28;19922;-81
2023/05/11 01:26:11;;;;;;;;;;;11.20;69.60;;;-151.14;100.00;62537.16;5031953;28;19921;-81
2023/05/11 01:28:52;;;;;;;;;;;11.20;69.60;;;-151.14;100.00;62537.16;5014760;28;19927;-80
2023/05/11 01:31:22;;;;;;;;;;;11.20;69.90;;;-151.14;100.00;62537.16;5015395;28;19921;-81
2023/05/11 01:33:54;;;;;;;;;;;11.20;69.60;;;-151.14;100.00;62537.16;5014948;28;19921;-81
2023/05/11 01:36:23;;;;;;;;;;;11.20;69.60;;;-151.14;100.00;62537.16;5031452;28;19921;-81
2023/05/11 01:38:51;;;;;;;;;;;11.20;69.60;;;-151.14;100.00;62537.16;5030217;28;20209;-81
2023/05/11 01:41:20;;;;;;;;;;;11.10;69.60;;;-151.14;100.00;62537.16;5015675;28;19922;-81
2023/05/11 01:43:53;;;;;;;;;;;11.10;69.50;;;-151.14;100.00;62537.16;5014906;28;19921;-81
2023/05/11 01:46:23;;;;;;;;;;;11.10;69.60;;;-151.14;100.00;62537.16;5031440;28;20124;-81
2023/05/11 01:48:51;;;;;;;;;;;11.10;69.60;;;-151.14;100.00;62537.16;5014225;28;19928;-81
2023/05/11 01:51:21;;;;;;;;;;;11.10;69.40;;;-151.14;100.00;62537.16;5014993;28;19921;-82
2023/05/11 01:53:49;;;;;;;;;;;11.10;69.50;;;-151.14;100.00;62537.16;5014712;28;19921;-81
2023/05/11 01:56:17;;;;;;;;;;;11.10;69.20;;;-151.14;100.00;62537.16;5014787;28;19921;-81
2023/05/11 01:58:45;;;;;;;;;;;11.10;69.10;;;-151.14;100.00;62537.16;5014173;28;19928;-81
2023/05/11 02:01:14;;;;;;;;;;;11.10;69.20;;;-151.14;100.00;62537.16;5014811;28;19921;-81
2023/05/11 02:03:44;;;;;;;;;;;11.10;69.00;;;-151.14;100.00;62537.16;5030940;28;19924;-81
2023/05/11 02:06:13;;;;;;;;;;;11.10;68.90;;;-151.14;100.00;62537.16;5014466;28;19921;-81
2023/05/11 02:08:41;;;;;;;;;;;11.10;68.90;;;-151.14;100.00;62537.16;5014131;28;19927;-81
2023/05/11 02:11:10;;;;;;;;;;;11.00;68.90;;;-151.14;100.00;62537.16;5031011;28;19927;-81
2023/05/11 02:13:39;;;;;;;;;;;11.00;69.20;;;-151.14;100.00;62537.16;5014415;28;19927;-81
2023/05/11 02:16:07;;;;;;;;;;;11.00;69.20;;;-151.14;100.00;62537.16;5030883;28;19921;-81
2023/05/11 02:18:35;;;;;;;;;;;11.00;69.00;;;-151.14;100.00;62537.16;5014032;28;19921;-81
2023/05/11 02:21:05;;;;;;;;;;;11.00;69.20;;;-151.14;100.00;62537.16;5014427;28;19927;-81
2023/05/11 02:23:33;;;;;;;;;;;11.00;69.20;;;-151.14;100.00;62537.16;5047376;28;19922;-81
2023/05/11 02:26:01;;;;;;;;;;;11.00;69.10;;;-151.14;100.00;62537.16;5014327;28;19929;-81
2023/05/11 02:28:30;;;;;;;;;;;11.00;68.90;;;-151.14;100.00;62537.16;5013796;28;19943;-81
2023/05/11 02:31:00;;;;;;;;;;;11.00;69.10;;;-151.14;100.00;62537.16;5018636;28;19921;-81
2023/05/11 02:33:31;;;;;;;;;;;11.00;68.80;;;-151.14;100.00;62537.16;5014336;28;19921;-81
2023/05/11 02:35:59;;;;;;;;;;;11.00;68.90;;;-151.14;100.00;62537.16;5030354;28;19921;-81
2023/05/11 02:38:33;;;;;;;;;;;11.00;69.10;;;-151.14;100.00;62537.16;5014304;28;19925;-81
2023/05/11 02:41:05;;;;;;;;;;;11.00;68.80;;;-151.14;100.00;62537.16;5014223;28;19927;-82
2023/05/11 02:43:35;;;;;;;;;;;11.00;69.00;;;-151.14;100.00;62537.16;5014125;28;19921;-82
2023/05/11 02:46:05;;;;;;;;;;;11.00;69.10;;;-151.14;100.00;62537.16;5014156;28;19943;-81
2023/05/11 02:48:37;;;;;;;;;;;11.00;69.10;;;-151.14;100.00;62537.16;5013476;28;19936;-82
2023/05/11 02:51:06;;;;;;;;;;;11.00;69.00;;;-151.14;100.00;62537.16;5029310;28;19921;-82
2023/05/11 02:53:40;;;;;;;;;;;11.00;69.00;;;-151.14;100.00;62537.16;5013292;28;19921;-82
2023/05/11 02:56:08;;;;;;;;;;;11.00;68.90;;;-151.14;100.00;62537.16;5024925;28;19921;-81
2023/05/11 02:58:37;;;;;;;;;;;11.00;69.00;;;-151.14;100.00;62537.16;5026482;28;19928;-82
2023/05/11 03:01:26;;;;;;;;;;;11.00;68.90;;;-151.14;100.00;62537.16;5010675;28;19921;-82
2023/05/11 03:03:54;;;;;;;;;;;10.90;68.70;;;-151.14;100.00;62537.16;5010537;28;19921;-81
2023/05/11 03:06:23;;;;;;;;;;;10.90;69.00;;;-151.14;100.00;62537.16;5010512;28;19928;-81
2023/05/11 03:08:53;;;;;;;;;;;10.90;68.70;;;-151.14;100.00;62537.16;4993758;28;20248;-81
2023/05/11 03:11:21;;;;;;;;;;;10.90;68.70;;;-151.14;100.00;62537.16;4994314;28;19921;-81
2023/05/11 03:13:50;;;;;;;;;;;10.90;68.80;;;-151.14;100.00;62537.16;5010579;28;19928;-81
2023/05/11 03:16:18;;;;;;;;;;;10.90;68.80;;;-151.14;100.00;62537.16;4994272;28;19927;-81
2023/05/11 03:18:47;;;;;;;;;;;10.90;68.80;;;-151.14;100.00;62537.16;4993649;28;19921;-81
2023/05/11 03:21:20;;;;;;;;;;;10.90;68.80;;;-151.14;100.00;62537.16;5010433;28;20231;-81
2023/05/11 03:23:48;;;;;;;;;;;10.90;68.70;;;-151.14;100.00;62537.16;5010350;28;19936;-81
2023/05/11 03:26:20;;;;;;;;;;;10.90;68.80;;;-151.14;100.00;62537.16;5010189;28;20120;-81
2023/05/11 03:28:48;;;;;;;;;;;10.90;68.90;;;-151.14;100.00;62537.16;4993498;28;19922;-81
2023/05/11 03:31:16;;;;;;;;;;;10.90;68.70;;;-151.14;100.00;62537.16;5010375;28;19921;-81
2023/05/11 03:33:44;;;;;;;;;;;10.90;68.90;;;-151.14;100.00;62537.16;4993982;28;19925;-81
2023/05/11 03:36:12;;;;;;;;;;;10.90;68.80;;;-151.14;100.00;62537.16;5010086;28;19928;-81
2023/05/11 03:38:40;;;;;;;;;;;10.90;68.60;;;-151.14;100.00;62537.16;4993364;28;19922;-81
2023/05/11 03:41:13;;;;;;;;;;;10.90;68.70;;;-151.14;100.00;62537.16;5010119;28;19928;-81
2023/05/11 03:43:42;;;;;;;;;;;10.90;68.90;;;-151.14;100.00;62537.16;5010250;28;19947;-82
2023/05/11 03:46:11;;;;;;;;;;;10.90;68.90;;;-151.14;100.00;62537.16;4993634;28;19922;-81
2023/05/11 03:48:39;;;;;;;;;;;10.90;68.90;;;-151.14;100.00;62537.16;5012299;28;19943;-82
2023/05/11 03:51:07;;;;;;;;;;;10.90;69.90;;;-151.14;100.00;62537.16;5013247;28;19921;-81
2023/05/11 03:53:36;;;;;;;;;;;10.90;69.10;;;-151.14;100.00;62537.16;5013407;28;20116;-82
2023/05/11 03:56:06;;;;;;;;;;;10.90;69.10;;;-151.14;100.00;62537.16;5030910;28;19922;-81
2023/05/11 03:58:34;;;;;;;;;;;10.90;69.20;;;-151.14;100.00;62537.16;5012753;28;19921;-81
2023/05/11 04:01:03;;;;;;;;;;;10.90;69.20;;;-151.14;100.00;62537.16;5013151;28;19928;-81
2023/05/11 04:03:31;;;;;;;;;;;10.90;69.20;;;-151.14;100.00;62537.16;5049335;28;20366;-81
2023/05/11 04:05:59;;;;;;;;;;;10.90;69.40;;;-151.14;100.00;62537.16;5016355;28;19921;-81
2023/05/11 04:08:27;;;;;;;;;;;10.90;69.10;;;-151.14;100.00;62537.16;5032353;28;19921;-81
2023/05/11 04:10:55;;;;;;;;;;;10.90;69.00;;;-151.14;100.00;62537.16;5032761;28;20216;-81
2023/05/11 04:13:23;;;;;;;;;;;10.90;69.30;;;-151.14;100.00;62537.16;5016356;28;19921;-81
2023/05/11 04:15:51;;;;;;;;;;;11.00;69.20;;;-151.14;100.00;62537.16;5032692;28;19922;-81
2023/05/11 04:18:21;;;;;;;;;;;11.00;69.10;;;-151.14;100.00;62537.16;5032141;28;19943;-81
2023/05/11 04:20:49;;;;;;;;;;;11.00;69.40;;;-151.14;100.00;62537.16;5015958;28;20232;-81
2023/05/11 04:23:17;;;;;;;;;;;11.00;69.30;;;-151.14;100.00;62537.16;5016343;28;20235;-81
2023/05/11 04:25:45;;;;;;;;;;;11.00;69.30;;;-151.14;100.00;62537.16;5015996;28;19921;-81
2023/05/11 04:28:13;;;;;;;;;;;11.00;69.40;;;-151.14;100.00;62537.16;5033136;28;19921;-81
2023/05/11 04:30:41;;;;;;;;;;;11.10;69.60;;;-151.14;100.00;62537.16;5032609;28;19921;-81
2023/05/11 04:33:09;;;;;;;;;;;11.10;70.00;;;-151.14;100.00;62537.16;5016485;28;20112;-81
2023/05/11 04:35:40;;;;;;;;;;;11.10;70.50;;;-151.14;100.00;62537.16;5015781;28;19921;-81
2023/05/11 04:38:09;;;;;;;;;;;11.20;69.50;;;-151.14;100.00;62537.16;5015487;28;19921;-81
2023/05/11 04:40:37;;;;;;;;;;;11.20;69.50;;;-151.14;100.00;62537.16;5015955;28;19929;-81
2023/05/11 04:43:05;;;;;;;;;;;11.30;69.20;;;-151.14;100.00;62537.16;5032434;28;19925;-81
2023/05/11 04:45:33;;;;;;;;;;;11.30;69.10;;;-151.14;100.00;62537.16;5048862;28;19928;-81
2023/05/11 04:48:01;;;;;;;;;;;11.40;68.90;;;-151.14;100.00;62537.16;5031894;28;19927;-81
2023/05/11 04:50:29;;;;;;;;;;;11.40;68.70;;;-151.14;100.00;62537.16;5032376;28;19921;-82
2023/05/11 04:52:59;;;;;;;;;;;11.40;68.70;;;-151.14;100.00;62537.16;5015929;28;19921;-81
2023/05/11 04:55:27;;;;;;;;;;;11.50;68.90;;;-151.14;100.00;62537.16;5032092;28;19928;-81
2023/05/11 04:57:56;;;;;;;;;;;11.50;68.80;;;-151.14;100.00;62537.16;5031691;28;20235;-81
2023/05/11 05:00:24;;;;;;;;;;;11.50;68.50;;;-151.14;100.00;62537.16;5032161;28;19921;-81
2023/05/11 05:02:53;;;;;;;;;;;11.50;68.60;;;-151.14;100.00;62537.16;5015762;28;19921;-81
2023/05/11 05:05:21;;;;;;;;;;;11.60;68.60;;;-151.14;100.00;62537.16;5015629;28;19927;-81
2023/05/11 05:07:49;;;;;;;;;;;11.60;68.60;;;-151.14;100.00;62537.16;5031455;28;19921;-81
2023/05/11 05:10:19;;;;;;;;;;;11.60;68.60;;;-151.14;100.00;62537.16;5015582;28;19935;-81
2023/05/11 05:12:47;;;;;;;;;;;11.60;68.50;;;-151.14;100.00;62537.16;5048303;28;19927;-81
2023/05/11 05:15:16;;;;;;;;;;;11.60;68.10;;;-151.14;100.00;62537.16;5014798;28;20068;-81
2023/05/11 05:17:44;;;;;;;;;;;11.60;67.70;;;-151.14;100.00;62537.16;5014861;28;19927;-81
2023/05/11 05:20:12;;;;;;;;;;;11.70;67.90;;;-151.14;100.00;62537.16;5015423;28;19943;-81
2023/05/11 05:22:40;;;;;;;;;;;11.70;67.90;;;-151.14;100.00;62537.16;5031889;28;19928;-81
2023/05/11 05:25:10;;;;;;;;;;;11.70;67.70;;;-151.14;100.00;62537.16;5031772;28;19921;-81
2023/05/11 05:27:40;;;;;;;;;;;11.70;67.70;;;-151.14;100.00;62537.16;5014836;28;19970;-81
2023/05/11 05:30:12;;;;;;;;;;;11.80;67.60;;;-151.14;100.00;62537.16;5015212;28;20121;-81
2023/05/11 05:32:40;;;;;;;;;;;11.80;67.30;;;-151.14;100.00;62537.16;5048276;28;20239;-81
2023/05/11 05:35:08;;;;;;;;;;;11.80;67.10;;;-151.14;100.00;62537.16;5047996;28;20235;-80
2023/05/11 05:37:37;;;;;;;;;;;11.90;67.20;;;-151.14;100.00;62537.16;5014507;28;19921;-81
2023/05/11 05:40:06;;;;;;;;;;;11.90;67.10;;;-151.14;100.00;62537.16;5015064;28;19928;-81
2023/05/11 05:42:41;;;;;;;;;;;12.00;67.10;;;-151.14;100.00;62537.16;5015166;28;19921;-81
2023/05/11 05:45:11;;;;;;;;;;;12.00;67.00;;;-151.14;100.00;62537.16;5015062;28;19926;-81
2023/05/11 05:47:40;;;;;;;;;;;12.10;66.90;;;-151.14;100.00;62537.16;5030812;28;19921;-81
2023/05/11 05:50:10;;;;;;;;;;;12.20;66.70;;;-151.14;100.00;62537.16;5031444;28;19921;-81
2023/05/11 05:52:39;;;;;;;;;;;12.30;66.70;;;-151.14;100.00;62537.16;5031416;28;19921;-80
2023/05/11 05:55:08;;;;;;;;;;;12.30;66.50;;;-151.14;100.00;62537.16;5025567;28;19928;-81
2023/05/11 05:57:36;;;;;;;;;;;12.40;66.30;;;-151.14;100.00;62537.16;5030565;28;19928;-81
2023/05/11 06:00:08;;;;;;;;;;;12.40;66.10;;;-151.14;100.00;62537.16;5031217;28;19925;-81
2023/05/11 06:02:41;;;;;;;;;;;12.50;66.00;;;-151.14;100.00;62537.16;5031090;28;19921;-81
2023/05/11 06:05:13;;;;;;;;;;;12.50;65.90;;;-151.14;100.00;62537.16;5014683;28;19921;-81
2023/05/11 06:07:41;;;;;;;;;;;12.50;65.90;;;-151.14;100.00;62537.16;5031560;28;20239;-81
2023/05/11 06:10:09;;;;;;;;;;;12.60;65.60;;;-151.14;100.00;62537.16;5031078;28;19928;-81
2023/05/11 06:12:37;;;;;;;;;;;12.60;65.60;;;-151.14;100.00;62537.16;5032142;28;19921;-81
2023/05/11 06:15:07;;;;;;;;;;;12.60;65.50;;;-151.14;100.00;62537.16;5014477;28;19955;-81
2023/05/11 06:17:38;;;;;;;;;;;12.70;65.10;;;-151.14;100.00;62537.16;5013919;28;19921;-81
2023/05/11 06:20:08;;;;;;;;;;;12.70;65.20;;;-151.14;100.00;62537.16;5030969;28;19927;-81
2023/05/11 06:22:36;;;;;;;;;;;12.80;65.10;;;-151.14;100.00;62537.16;5030808;28;19921;-81
2023/05/11 06:25:06;;;;;;;;;;;12.80;64.90;;;-151.14;100.00;62537.16;5047169;28;19928;-81
2023/05/11 06:27:34;;;;;;;;;;;12.80;64.80;;;-151.14;100.00;62537.16;5030213;28;19921;-81
2023/05/11 06:30:03;;;;;;;;;;;12.80;64.50;;;-151.14;100.00;62537.16;5032025;28;19927;-81
2023/05/11 06:32:36;;;;;;;;;;;12.80;64.40;;;-151.14;100.00;62537.16;5014394;28;19921;-81
2023/05/11 06:35:06;;;;;;;;;;;12.80;64.70;;;-151.14;100.00;62537.16;5030737;28;19928;-81
2023/05/11 06:37:34;;;;;;;;;;;12.80;64.60;;;-151.14;100.00;62537.16;5013572;28;20120;-81
2023/05/11 06:40:04;;;;;;;;;;;12.90;64.60;;;-151.14;100.00;62537.16;5014419;28;19929;-81
2023/05/11 06:42:32;;;;;;;;;;;12.90;64.50;;;-151.14;100.00;62537.16;5030597;28;19927;-81
2023/05/11 06:45:09;;;;;;;;;;;12.90;64.40;;;-151.14;100.00;62537.16;5030723;28;19921;-81
2023/05/11 06:47:38;;;;;;;;;;;12.90;64.30;;;-151.14;100.00;62537.16;5030007;28;19921;-82
2023/05/11 06:50:07;;;;;;;;;;;12.80;64.50;;;-151.14;100.00;62537.16;5030650;28;19927;-81
2023/05/11 06:52:38;;;;;;;;;;;12.90;64.40;;;-151.14;100.00;62537.16;5030531;28;19922;-81
2023/05/11 06:55:07;;;;;;;;;;;12.90;64.40;;;-151.14;100.00;62537.16;5047005;28;20209;-81
2023/05/11 06:57:35;;;;;;;;;;;12.90;64.50;;;-151.14;100.00;62537.16;5013472;28;19921;-81
2023/05/11 07:00:04;;;;;;;;;;;12.90;64.30;;;-151.14;100.00;62537.16;5031534;28;19921;-81
2023/05/11 07:02:33;;;;;;;;;;;13.00;64.30;;;-151.14;100.00;62537.16;5014103;28;19921;-81
2023/05/11 07:05:03;;;;;;;;;;;13.00;64.20;;;-151.14;100.00;62537.16;5013942;28;19928;-81
2023/05/11 07:07:31;;;;;;;;;;;13.00;63.90;;;-151.14;100.00;62537.16;5013212;28;19921;-81
2023/05/11 07:09:59;;;;;;;;;;;13.00;64.00;;;-151.14;100.00;62537.16;5030281;28;19921;-81
2023/05/11 07:12:27;;;;;;;;;;;13.10;64.10;;;-151.14;100.00;62537.16;5030097;28;20124;-81
2023/05/11 07:14:55;;;;;;;;;;;13.10;63.80;;;-151.14;100.00;62537.16;5030167;28;20120;-82
2023/05/11 07:17:23;;;;;;;;;;;13.10;64.50;;;-151.14;100.00;62537.16;5029468;28;19921;-81
2023/05/11 07:19:52;;;;;;;;;;;13.10;63.70;;;-151.14;100.00;62537.16;5013648;28;19944;-81
2023/05/11 07:22:21;;;;;;;;;;;13.10;63.50;;;-151.14;100.00;62537.16;5013679;28;20205;-82
2023/05/11 07:24:50;;;;;;;;;;;13.10;63.30;;;-151.14;100.00;62537.16;5029973;28;19921;-82
2023/05/11 07:27:18;;;;;;;;;;;13.10;63.10;;;-151.14;100.00;62537.16;5029329;28;19921;-82
2023/05/11 07:29:46;;;;;;;;;;;13.10;62.20;;;-151.14;100.00;62537.16;5029845;28;19943;-82
2023/05/11 07:32:14;;;;;;;;;;;13.20;62.40;;;-151.14;100.00;62537.16;5013433;28;19921;-82
2023/05/11 07:34:42;;;;;;;;;;;13.20;62.40;;;-151.14;100.00;62537.16;5029887;28;19927;-82
2023/05/11 07:37:10;;;;;;;;;;;13.20;62.30;;;-151.14;100.00;62537.16;5030209;28;19944;-82
2023/05/11 07:39:40;;;;;;;;;;;13.20;62.40;;;-151.14;100.00;62537.16;5033376;28;19921;-81
2023/05/11 07:42:08;;;;;;;;;;;13.20;62.30;;;-151.14;100.00;62537.16;5033339;28;19928;-82
2023/05/11 07:44:36;;;;;;;;;;;13.20;61.60;;;-151.14;100.00;62537.16;5034344;28;20132;-81
2023/05/11 07:47:04;;;;;;;;;;;13.20;61.70;;;-151.14;100.00;62537.16;5033720;28;19929;-82
2023/05/11 07:49:32;;;;;;;;;;;13.30;62.00;;;-151.14;100.00;62537.16;5033056;28;19921;-82
2023/05/11 07:52:00;;;;;;;;;;;13.30;61.60;;;-151.14;100.00;62537.16;5033094;28;19921;-82
2023/05/11 07:54:28;;;;;;;;;;;13.30;61.40;;;-151.14;100.00;62537.16;5033011;28;19943;-82
2023/05/11 07:56:58;;;;;;;;;;;13.30;60.30;;;-151.14;100.00;62537.16;5032436;28;19921;-82
2023/05/11 07:59:26;;;;;;;;;;;13.30;61.00;;;-151.14;100.00;62537.16;5032858;28;19935;-82
2023/05/11 08:01:54;;;;;;;;;;;13.40;60.00;;;-151.14;100.00;62537.16;5033055;28;19921;-81
2023/05/11 08:04:21;;;;;;;;;;;13.40;60.10;;;-151.14;100.00;62537.16;5032848;28;19928;-82
2023/05/11 08:06:50;;;;;;;;;;;13.40;60.40;;;-151.14;100.00;62537.16;5032633;28;19921;-82
2023/05/11 08:09:17;;;;;;;;;;;13.40;61.20;;;-151.14;100.00;62537.16;5032811;28;19936;-82
2023/05/11 08:11:46;;;;;;;;;;;13.40;61.20;;;-151.14;100.00;62537.16;5016569;28;19943;-82
2023/05/11 08:14:15;;;;;;;;;;;13.40;59.30;;;-151.14;100.00;62537.16;5049366;28;19921;-82
2023/05/11 08:16:44;;;;;;;;;;;13.40;60.30;;;-151.14;100.00;62537.16;5032748;28;19921;-82
2023/05/11 08:19:12;;;;;;;;;;;13.30;60.70;;;-151.14;100.00;62537.16;5016037;28;19928;-82
2023/05/11 08:21:40;;;;;;;;;;;13.30;60.00;;;-151.14;100.00;62537.16;5032848;28;19928;-82
2023/05/11 08:24:08;;;;;;;;;;;13.40;59.30;;;-151.14;100.00;62537.16;5016173;28;19921;-82
2023/05/11 08:26:36;;;;;;;;;;;13.40;60.40;;;-151.14;100.00;62537.16;5032840;28;19921;-82
2023/05/11 08:29:04;;;;;;;;;;;13.40;58.90;;;-151.14;100.00;62537.16;5031962;28;19928;-82
2023/05/11 08:31:34;;;;;;;;;;;13.30;60.00;;;-151.14;100.00;62537.16;5016183;28;19927;-82
2023/05/11 08:34:02;;;;;;;;;;;13.30;61.10;;;-151.14;100.00;62537.16;5049044;28;19927;-82
2023/05/11 08:36:30;;;;;;;;;;;13.30;60.90;;;-151.14;100.00;62537.16;5032199;28;19921;-82
2023/05/11 08:38:58;;;;;;;;;;;13.20;61.60;;;-151.14;100.00;62537.16;5031939;28;19921;-83
2023/05/11 08:41:26;;;;;;;;;;;13.20;61.50;;;-151.14;100.00;62537.16;5032397;28;19921;-82
2023/05/11 08:43:54;;;;;;;;;;;13.10;61.70;;;-151.14;100.00;62537.16;5016001;28;19921;-82
2023/05/11 08:46:55;;;;;;;;;;;13.10;62.20;;;-151.14;100.00;62537.16;5015841;28;20234;-82
2023/05/11 08:49:25;;;;;;;;;;;13.00;62.30;;;-151.14;100.00;62537.16;5013903;28;19921;-82
2023/05/11 08:51:53;;;;;;;;;;;13.00;62.60;;;-151.14;100.00;62537.16;5027616;28;19953;-82
2023/05/11 08:54:21;;;;;;;;;;;12.90;62.90;;;-151.14;100.00;62537.16;4996101;28;19945;-82
2023/05/11 08:56:50;;;;;;;;;;;12.90;62.80;;;-151.14;100.00;62537.16;4995736;28;20134;-82
2023/05/11 08:59:18;;;;;;;;;;;12.90;63.10;;;-151.14;100.00;62537.16;5012398;28;19922;-83
2023/05/11 09:01:46;;;;;;;;;;;12.90;63.20;;;-151.14;100.00;62537.16;5028990;28;20209;-83
2023/05/11 09:04:16;;;;;;;;;;;12.90;63.20;;;-151.14;100.00;62537.16;5012519;28;19921;-82
2023/05/11 09:06:44;;;;;;;;;;;12.90;63.20;;;-151.14;100.00;62537.16;4995773;28;20094;-81
2023/05/11 09:09:12;;;;;;;;;;;12.80;63.00;;;-151.14;100.00;62537.16;5012135;28;20094;-83
2023/05/11 09:11:40;;;;;;;;;;;12.80;63.30;;;-151.14;100.00;62537.16;4995856;28;19928;-83
2023/05/11 09:14:08;;;;;;;;;;;12.80;63.40;;;-151.14;100.00;62537.16;4995973;28;19928;-83
2023/05/11 09:16:36;;;;;;;;;;;12.80;63.50;;;-151.14;100.00;62537.16;4995726;28;19944;-82
2023/05/11 09:19:05;;;;;;;;;;;12.80;63.70;;;-151.14;100.00;62537.16;5011038;28;19922;-82
2023/05/11 09:21:34;;;;;;;;;;;12.80;63.80;;;-151.14;100.00;62537.16;5012067;28;19928;-83
2023/05/11 09:24:02;;;;;;;;;;;12.80;63.90;;;-151.14;100.00;62537.16;4995788;28;19921;-83
2023/05/11 09:26:31;;;;;;;;;;;12.70;63.90;;;-151.14;100.00;62537.16;4995552;28;19922;-82
2023/05/11 09:28:59;;;;;;;;;;;12.80;63.60;;;-151.14;100.00;62537.16;5011342;28;20247;-83
2023/05/11 09:31:37;;;;;;;;;;;12.80;62.70;;;-151.14;100.00;62537.16;5011824;28;19922;-83
2023/05/11 09:34:19;;;;;;;;;;;12.80;60.60;;;-151.14;100.00;62537.16;4995608;28;19922;-83
2023/05/11 09:36:50;;;;;;;;;;;12.90;59.40;;;-151.14;100.00;62537.16;4995070;28;19928;-83
2023/05/11 09:39:18;;;;;;;;;;;13.00;58.40;;;-151.14;100.00;62537.16;5011728;28;19927;-82
2023/05/11 09:41:46;;;;;;;;;;;13.10;57.30;;;-151.14;100.00;62537.16;5011840;28;19922;-83
2023/05/11 09:44:15;;;;;;;;;;;13.10;58.00;;;-151.14;100.00;62537.16;5011855;28;19928;-82
2023/05/11 09:46:44;;;;;;;;;;;13.10;58.10;;;-151.14;100.00;62537.16;5028121;28;19921;-83
2023/05/11 09:49:12;;;;;;;;;;;13.20;57.60;;;-151.14;100.00;62537.16;5011482;28;19928;-82
2023/05/11 09:51:40;;;;;;;;;;;13.20;57.80;;;-151.14;100.00;62537.16;5011672;28;19921;-82
2023/05/11 09:54:19;;;;;;;;;;;13.20;57.00;;;-151.14;100.00;62537.16;5012623;28;19928;-82
2023/05/11 09:56:48;;;;;;;;;;;13.10;56.40;;;-151.14;100.00;62537.16;4994936;28;19928;-83
2023/05/11 09:59:16;;;;;;;;;;;13.10;58.20;;;-151.14;100.00;62537.16;4994676;28;19922;-83
2023/05/11 10:01:44;;;;;;;;;;;13.10;58.10;;;-151.14;100.00;62537.16;4995111;28;19921;-83
2023/05/11 10:04:12;;;;;;;;;;;13.10;60.10;;;-151.14;100.00;62537.16;4995255;28;19921;-83
2023/05/11 10:06:45;;;;;;;;;;;13.10;57.40;;;-151.14;100.00;62537.16;5011287;28;19921;-83
2023/05/11 10:09:13;;;;;;;;;;;13.10;57.10;;;-151.14;100.00;62537.16;4994907;28;20129;-83
2023/05/11 10:11:45;;;;;;;;;;;13.10;57.60;;;-151.14;100.00;62537.16;4995123;28;19927;-83
2023/05/11 10:14:13;;;;;;;;;;;13.10;58.00;;;-151.14;100.00;62537.16;5011426;28;19921;-83
2023/05/11 10:16:42;;;;;;;;;;;13.10;58.30;;;-151.14;100.00;62537.16;5011040;28;19965;-82
2023/05/11 10:19:10;;;;;;;;;;;13.10;59.00;;;-151.14;100.00;62537.16;5012085;28;19921;-83
2023/05/11 10:21:39;;;;;;;;;;;13.00;57.10;;;-151.14;100.00;62537.16;4995058;28;19922;-83
2023/05/11 10:24:08;;;;;;;;;;;13.00;60.10;;;-151.14;100.00;62537.16;5011321;28;19922;-83
2023/05/11 10:26:36;;;;;;;;;;;13.00;59.10;;;-151.14;100.00;62537.16;5011235;28;19925;-83
2023/05/11 10:29:05;;;;;;;;;;;13.00;58.40;;;-151.14;100.00;62537.16;5010723;28;19944;-83
2023/05/11 10:31:33;;;;;;;;;;;13.00;59.40;;;-151.14;100.00;62537.16;5010991;28;19921;-83
2023/05/11 10:34:02;;;;;;;;;;;13.00;59.70;;;-151.14;100.00;62537.16;5012255;28;20251;-83
2023/05/11 10:36:30;;;;;;;;;;;13.00;57.30;;;-151.14;100.00;62537.16;5010986;28;20209;-83
2023/05/11 10:38:59;;;;;;;;;;;13.00;59.20;;;-151.14;100.00;62537.16;5010236;28;19922;-83
2023/05/11 10:41:42;;;;;;;;;;;13.00;58.30;;;-151.14;100.00;62537.16;5027244;28;19928;-83
2023/05/11 10:44:23;;;;;;;;;;;13.00;56.20;;;-151.14;100.00;62537.16;4994746;28;19928;-83
2023/05/11 10:47:03;;;;;;;;;;;13.00;56.50;;;-151.14;100.00;62537.16;5010212;28;19921;-83
2023/05/11 10:49:42;;;;;;;;;;;13.00;56.60;;;-151.14;100.00;62537.16;5010834;28;19921;-84
2023/05/11 10:52:25;;;;;;;;;;;13.00;56.80;;;-151.14;100.00;62537.16;4994516;28;19921;-84
2023/05/11 10:55:01;;;;;;;;;;;13.00;56.10;;;-151.14;100.00;62537.16;5011937;28;20120;-84
2023/05/11 10:57:37;;;;;;;;;;;13.10;56.40;;;-151.14;100.00;62537.16;5010134;28;20071;-83
2023/05/11 11:00:46;;;;;;;;;;;13.00;54.70;;;-151.14;100.00;62537.16;5010859;28;19921;-83
2023/05/11 11:03:14;;;;;;;;;;;13.10;57.10;;;-151.14;100.00;62537.16;5010613;28;19927;-84
2023/05/11 11:05:43;;;;;;;;;;;13.10;58.00;;;-151.14;100.00;62537.16;5010636;28;20126;-83